Kezdőlap
METAR-TAF:

METAR-TAF

Repülőterek :

Edson, Alberta, Kanada

földrajzi szélesség: 53-35N, földrajzi hosszúság: 116-28W, magasság: 921 m

Jelenlegi meteorológiai megfigyelések

A jelentés 24 perccel ezelõtt készült, 04:00 UTC
Szélcsend
Hőmérséklet -7°C
Páratartalom 100%
Légköri nyomás 1016 hPa
Látótávolság: 14.5 km
Borult 8000 lábon

METAR: CYET 100400Z AUTO 00000KT 9SM OVC080 M07/M07 A3001 RMK SLP218

Idő: 21:24 (04:24 UTC)


TAF: hiányzik

Meteorológiai megfigyelések és előrejelzések több, mint 4000 repülőtéren (METAR és TAF jelentéseket).

A térképen piros és sárga pontok jelzik az elérhető meteorológiai állomásokat.

Mozgassa az egeret a pont fölött, hogy megjelenjen az állomás neve.

Azután kattintson az időjárási megfigyelések és előrejelzések megtekintéséhez.

A térkép megváltoztatása: kattintson a fekete keresztel jelölt zöld gombra ráközelítéshez, a vonallal jelölt zöld gombra távolításhoz, vagy a zöld nyilakra a szomszédos térképek eléréséhez.


METAR-TAF: